Time;durP1;ratioP1;P1;durP2;ratioP2;P2;SDS_P1;SDS_P2;PMS_P1;PMS_P2;Temp;Humidity;BMP_temperature;BMP_pressure;BME280_temperature;BME280_humidity;BME280_pressure;Samples;Min_cycle;Max_cycle;Signal;HPM_P1;HPM_P2
2022/09/06 00:02:18;;;;;;;1050.00;961.42;;;24.30;89.00;;;;;;5077838;28;20222;-75
2022/09/06 00:04:45;;;;;;;1058.63;969.80;;;24.30;89.10;;;;;;5077939;28;20615;-75
2022/09/06 00:07:12;;;;;;;1061.55;972.55;;;24.30;89.10;;;;;;5079053;28;20202;-74
2022/09/06 00:09:38;;;;;;;1052.25;963.53;;;24.30;89.20;;;;;;5078821;28;20197;-74
2022/09/06 00:12:05;;;;;;;1037.95;950.10;;;24.30;89.30;;;;;;5082454;28;20281;-74
2022/09/06 00:14:33;;;;;;;1051.38;962.72;;;24.20;89.20;;;;;;5085225;28;20201;-74
2022/09/06 00:17:00;;;;;;;1055.05;966.33;;;24.20;89.30;;;;;;5081477;28;20213;-74
2022/09/06 00:19:27;;;;;;;1052.15;963.55;;;24.20;89.30;;;;;;5086660;28;20202;-74
2022/09/06 00:21:54;;;;;;;1049.30;960.67;;;24.20;89.40;;;;;;5085973;28;20218;-74
2022/09/06 00:24:20;;;;;;;1059.35;970.50;;;24.20;89.40;;;;;;5084131;28;20201;-75
2022/09/06 00:26:47;;;;;;;1049.20;961.00;;;24.20;89.40;;;;;;5081830;28;20217;-75
2022/09/06 00:29:14;;;;;;;1050.95;962.47;;;24.20;89.50;;;;;;5077969;28;20202;-74
2022/09/06 00:31:42;;;;;;;1047.43;959.08;;;24.20;89.60;;;;;;5071375;28;20213;-76
2022/09/06 00:34:09;;;;;;;1059.75;971.03;;;24.20;90.00;;;;;;5081995;28;20198;-75
2022/09/06 00:36:36;;;;;;;1041.55;953.17;;;24.10;89.50;;;;;;5071976;28;20281;-75
2022/09/06 00:39:03;;;;;;;1056.25;967.53;;;24.20;89.80;;;;;;5073191;28;20181;-74
2022/09/06 00:41:30;;;;;;;1038.75;950.53;;;24.10;89.70;;;;;;5071272;28;20754;-74
2022/09/06 00:43:57;;;;;;;1039.47;951.38;;;24.10;89.70;;;;;;5084332;28;20200;-74
2022/09/06 00:46:27;;;;;;;1049.82;961.25;;;24.10;89.80;;;;;;5082738;28;20675;-74
2022/09/06 00:48:59;;;;;;;1063.07;974.10;;;24.10;89.80;;;;;;5085865;28;20196;-74
2022/09/06 00:51:29;;;;;;;1047.72;959.33;;;24.10;90.00;;;;;;5086407;28;20221;-74
2022/09/06 00:53:56;;;;;;;1052.82;964.20;;;24.00;89.90;;;;;;5084203;28;20539;-75
2022/09/06 00:56:24;;;;;;;1032.47;944.63;;;24.00;90.00;;;;;;5078895;28;20197;-75
2022/09/06 00:58:51;;;;;;;1040.15;951.92;;;24.00;90.00;;;;;;5086116;28;20201;-75
2022/09/06 01:01:18;;;;;;;1048.68;960.25;;;24.00;90.00;;;;;;5078799;28;20216;-75
2022/09/06 01:03:44;;;;;;;1037.15;949.10;;;24.00;90.10;;;;;;5075844;28;20236;-76
2022/09/06 01:06:23;;;;;;;1047.28;958.92;;;24.00;90.10;;;;;;5087297;28;20675;-75
2022/09/06 01:09:01;;;;;;;1041.45;953.17;;;24.00;90.10;;;;;;5086472;28;20197;-75
2022/09/06 01:11:47;;;;;;;1044.28;956.05;;;24.00;90.10;;;;;;5083508;28;20204;-75
2022/09/06 01:14:25;;;;;;;1037.80;949.85;;;24.00;90.20;;;;;;5079628;28;20194;-76
2022/09/06 01:16:59;;;;;;;1034.97;947.17;;;24.00;90.30;;;;;;5081489;28;20202;-75
2022/09/06 01:20:15;;;;;;;1038.43;950.35;;;23.90;90.20;;;;;;5080571;28;20197;-75
2022/09/06 01:23:04;;;;;;;1013.58;926.10;;;23.90;90.30;;;;;;5075465;28;20711;-75
2022/09/06 01:25:38;;;;;;;1024.80;937.20;;;23.90;90.30;;;;;;5078926;28;20201;-75
2022/09/06 01:28:24;;;;;;;1029.30;941.47;;;23.90;90.40;;;;;;5087105;28;20213;-75
2022/09/06 01:30:57;;;;;;;1045.43;957.10;;;23.90;90.40;;;;;;5078042;28;20247;-75
2022/09/06 01:33:30;;;;;;;1041.80;953.70;;;23.90;90.50;;;;;;5083637;28;20202;-75
2022/09/06 01:36:01;;;;;;;1035.10;947.38;;;23.90;90.50;;;;;;5082147;28;20194;-75
2022/09/06 01:38:28;;;;;;;1034.35;946.33;;;23.90;90.50;;;;;;5088037;28;20200;-75
2022/09/06 01:40:55;;;;;;;1035.13;947.20;;;23.80;90.50;;;;;;5082922;28;20194;-75
2022/09/06 01:43:27;;;;;;;1033.05;945.22;;;23.80;90.50;;;;;;5092201;28;20189;-75
2022/09/06 01:46:03;;;;;;;1040.65;952.47;;;23.80;90.60;;;;;;5086335;28;20191;-75
2022/09/06 01:48:39;;;;;;;1037.53;949.40;;;23.80;90.60;;;;;;5080026;28;20194;-75
2022/09/06 01:51:16;;;;;;;1027.30;939.60;;;23.80;90.70;;;;;;5077933;28;20189;-75
2022/09/06 01:53:54;;;;;;;1034.82;947.00;;;23.80;90.70;;;;;;5086704;28;20185;-75
2022/09/06 01:56:30;;;;;;;1018.55;931.13;;;23.80;90.70;;;;;;5086048;28;20200;-75
2022/09/06 01:59:22;;;;;;;1034.20;946.33;;;23.80;90.80;;;;;;5086069;28;20212;-76
2022/09/06 02:01:56;;;;;;;1036.28;948.30;;;23.80;90.80;;;;;;5082681;28;20688;-76
2022/09/06 02:04:28;;;;;;;1033.18;944.80;;;23.80;90.90;;;;;;5083356;28;20271;-75
2022/09/06 02:06:59;;;;;;;1039.95;951.72;;;23.70;90.90;;;;;;5086537;28;20186;-75
2022/09/06 02:09:30;;;;;;;1025.80;938.10;;;23.70;90.90;;;;;;5091984;28;20206;-75
2022/09/06 02:12:01;;;;;;;1038.65;950.53;;;23.70;90.90;;;;;;5085323;28;20206;-75
2022/09/06 02:14:33;;;;;;;1017.25;929.80;;;23.70;91.00;;;;;;5091494;28;20190;-76
2022/09/06 02:17:01;;;;;;;1035.45;947.35;;;23.70;91.00;;;;;;5087976;28;20659;-76
2022/09/06 02:19:33;;;;;;;1032.32;944.70;;;23.70;91.00;;;;;;5092011;28;20277;-75
2022/09/06 02:22:03;;;;;;;1028.60;940.88;;;23.70;91.00;;;;;;5083150;28;20221;-76
2022/09/06 02:24:33;;;;;;;1034.65;946.72;;;23.70;91.10;;;;;;5086049;28;20530;-76
2022/09/06 02:27:00;;;;;;;1020.63;933.10;;;23.70;91.10;;;;;;5087160;28;20194;-76
2022/09/06 02:29:27;;;;;;;1028.85;940.92;;;23.70;91.10;;;;;;5091708;28;20205;-75
2022/09/06 02:32:01;;;;;;;1037.88;949.55;;;23.70;91.10;;;;;;5085545;28;20201;-76
2022/09/06 02:34:28;;;;;;;1024.70;936.85;;;23.70;91.20;;;;;;5080465;28;20202;-76
2022/09/06 02:36:54;;;;;;;1021.42;933.78;;;23.60;91.10;;;;;;5087120;28;20660;-75
2022/09/06 02:39:21;;;;;;;1028.35;939.95;;;23.60;91.20;;;;;;5083180;28;20202;-76
2022/09/06 02:41:48;;;;;;;1034.50;946.47;;;23.60;91.20;;;;;;5081042;28;20220;-76
2022/09/06 02:44:15;;;;;;;1021.58;933.83;;;23.60;91.20;;;;;;5089939;28;20193;-76
2022/09/06 02:46:42;;;;;;;1041.43;953.40;;;23.60;91.20;;;;;;5077982;28;20202;-75
2022/09/06 02:49:10;;;;;;;1024.47;936.88;;;23.60;91.20;;;;;;5090675;28;20565;-76
2022/09/06 02:51:38;;;;;;;1021.67;934.03;;;23.60;91.20;;;;;;5089352;28;20205;-76
2022/09/06 02:54:05;;;;;;;1022.55;934.90;;;23.60;91.30;;;;;;5092673;28;20198;-75
2022/09/06 02:56:32;;;;;;;1014.25;926.83;;;23.50;91.20;;;;;;5086824;28;20674;-75
2022/09/06 02:58:59;;;;;;;1016.95;929.50;;;23.50;91.30;;;;;;5088144;28;20594;-76
2022/09/06 03:01:26;;;;;;;1031.43;943.47;;;23.50;91.30;;;;;;5072982;28;20657;-76
2022/09/06 03:03:52;;;;;;;1028.95;941.22;;;23.50;91.30;;;;;;5087107;28;20255;-76
2022/09/06 03:06:20;;;;;;;1034.13;946.10;;;23.50;91.30;;;;;;5081489;28;20189;-76
2022/09/06 03:08:47;;;;;;;1015.08;927.58;;;23.50;91.30;;;;;;5087028;28;20198;-76
2022/09/06 03:11:14;;;;;;;1029.70;941.50;;;23.50;91.40;;;;;;5087265;28;20196;-76
2022/09/06 03:13:41;;;;;;;1033.03;945.20;;;23.50;91.40;;;;;;5090918;28;20210;-76
2022/09/06 03:16:08;;;;;;;1030.97;943.00;;;23.50;91.40;;;;;;5079071;28;20190;-76
2022/09/06 03:18:34;;;;;;;1023.63;935.97;;;23.50;91.40;;;;;;5090343;28;20679;-76
2022/09/06 03:21:01;;;;;;;1018.90;931.60;;;23.50;91.40;;;;;;5077106;28;20631;-76
2022/09/06 03:23:30;;;;;;;1022.03;934.60;;;23.50;91.50;;;;;;5087810;28;20213;-76
2022/09/06 03:25:57;;;;;;;1024.95;937.17;;;23.50;91.40;;;;;;5081166;28;20288;-76
2022/09/06 03:28:24;;;;;;;1015.17;927.75;;;23.40;91.40;;;;;;5091110;28;20555;-74
2022/09/06 03:30:51;;;;;;;1014.25;926.85;;;23.40;91.40;;;;;;5083678;28;20420;-75
2022/09/06 03:33:18;;;;;;;1016.72;929.22;;;23.40;91.40;;;;;;5091940;28;20201;-75
2022/09/06 03:35:48;;;;;;;1026.57;938.70;;;23.40;91.40;;;;;;5079862;28;20198;-75
2022/09/06 03:38:15;;;;;;;1023.85;935.97;;;23.40;91.50;;;;;;5088084;28;20194;-75
2022/09/06 03:40:45;;;;;;;1018.97;931.42;;;23.40;91.50;;;;;;5087521;28;20209;-75
2022/09/06 03:43:12;;;;;;;1036.45;948.20;;;23.40;91.50;;;;;;5091685;28;20206;-75
2022/09/06 03:45:39;;;;;;;1021.67;934.17;;;23.40;91.50;;;;;;5080431;28;20195;-75
2022/09/06 03:48:06;;;;;;;1028.32;940.40;;;23.40;91.50;;;;;;5091725;28;20182;-75
2022/09/06 03:50:32;;;;;;;1017.65;930.08;;;23.40;91.50;;;;;;5086637;28;20198;-75
2022/09/06 03:52:59;;;;;;;1013.40;925.78;;;23.40;91.50;;;;;;5089510;28;20201;-75
2022/09/06 03:55:26;;;;;;;1006.85;919.55;;;23.40;91.50;;;;;;5082335;28;20194;-75
2022/09/06 03:57:54;;;;;;;1021.75;934.33;;;23.30;91.50;;;;;;5091773;28;20193;-75
2022/09/06 04:00:22;;;;;;;1029.75;941.78;;;23.30;91.50;;;;;;5077028;28;20194;-75
2022/09/06 04:02:49;;;;;;;1029.07;941.30;;;23.30;91.60;;;;;;5084500;28;20446;-75
2022/09/06 04:05:16;;;;;;;1014.45;927.10;;;23.30;91.60;;;;;;5083356;28;20193;-75
2022/09/06 04:07:43;;;;;;;1024.40;936.58;;;23.30;91.60;;;;;;5083393;28;20197;-75
2022/09/06 04:10:10;;;;;;;1008.60;921.42;;;23.30;91.60;;;;;;5086333;28;20196;-75
2022/09/06 04:12:36;;;;;;;1026.28;938.42;;;23.30;92.00;;;;;;5082867;28;20201;-75
2022/09/06 04:15:06;;;;;;;1025.68;937.75;;;23.30;91.70;;;;;;5079001;28;20664;-75
2022/09/06 04:17:32;;;;;;;1018.63;931.28;;;23.30;91.70;;;;;;5090389;28;20288;-75
2022/09/06 04:19:59;;;;;;;1005.45;918.50;;;23.30;91.80;;;;;;5083897;28;20192;-75
2022/09/06 04:22:26;;;;;;;1011.00;923.78;;;23.30;91.80;;;;;;5089706;28;20309;-75
2022/09/06 04:24:52;;;;;;;1007.33;920.28;;;23.30;91.80;;;;;;5084252;28;20186;-75
2022/09/06 04:27:19;;;;;;;1010.03;922.92;;;23.20;91.80;;;;;;5091326;28;20185;-75
2022/09/06 04:29:46;;;;;;;1016.10;928.58;;;23.20;91.80;;;;;;5082604;28;20522;-75
2022/09/06 04:32:14;;;;;;;1013.97;926.55;;;23.20;91.80;;;;;;5084181;28;20189;-75
2022/09/06 04:34:41;;;;;;;1009.13;922.00;;;23.20;91.80;;;;;;5083373;28;20206;-75
2022/09/06 04:37:07;;;;;;;1017.53;930.15;;;23.20;91.90;;;;;;5085491;28;20607;-75
2022/09/06 04:39:34;;;;;;;1016.30;928.60;;;23.20;91.90;;;;;;5083573;28;20684;-75
2022/09/06 04:42:01;;;;;;;1004.75;917.92;;;23.20;91.90;;;;;;5083437;28;20193;-74
2022/09/06 04:44:27;;;;;;;1025.43;937.60;;;23.20;92.00;;;;;;5080314;28;20201;-76
2022/09/06 04:47:04;;;;;;;998.65;911.75;;;23.20;92.00;;;;;;5084053;28;20201;-75
2022/09/06 04:49:32;;;;;;;1012.28;924.95;;;23.20;92.10;;;;;;5081679;28;20212;-75
2022/09/06 04:51:59;;;;;;;1019.67;932.05;;;23.20;92.10;;;;;;5086947;28;20197;-75
2022/09/06 04:54:26;;;;;;;1015.03;927.67;;;23.10;92.10;;;;;;5079033;28;20194;-75
2022/09/06 04:56:52;;;;;;;1020.53;932.55;;;23.10;92.10;;;;;;5088166;28;20200;-76
2022/09/06 04:59:19;;;;;;;1003.53;916.70;;;23.10;92.20;;;;;;5071865;28;20190;-76
2022/09/06 05:01:46;;;;;;;1010.15;922.83;;;23.10;92.20;;;;;;5082754;28;20194;-75
2022/09/06 05:04:13;;;;;;;1015.03;927.45;;;23.10;92.20;;;;;;5079091;28;20222;-75
2022/09/06 05:06:41;;;;;;;1013.50;926.33;;;23.10;92.30;;;;;;5086620;28;20202;-76
2022/09/06 05:09:08;;;;;;;1013.33;925.90;;;23.10;92.30;;;;;;5081188;28;20190;-75
2022/09/06 05:11:35;;;;;;;1004.90;917.78;;;23.10;92.30;;;;;;5089176;28;20197;-76
2022/09/06 05:14:02;;;;;;;1009.75;922.67;;;23.10;92.30;;;;;;5083844;28;20198;-76
2022/09/06 05:16:29;;;;;;;1016.28;928.88;;;23.10;92.40;;;;;;5082496;28;20201;-76
2022/09/06 05:18:56;;;;;;;1014.10;926.60;;;23.10;92.50;;;;;;5084702;28;20201;-75
2022/09/06 05:21:22;;;;;;;1000.65;913.47;;;23.10;92.50;;;;;;5086940;28;20232;-76
2022/09/06 05:23:50;;;;;;;1002.25;915.22;;;23.00;92.50;;;;;;5085770;28;20217;-75
2022/09/06 05:26:17;;;;;;;1002.08;915.13;;;23.00;92.60;;;;;;5086200;28;20196;-77
2022/09/06 05:28:44;;;;;;;1004.75;917.70;;;23.00;92.70;;;;;;5080531;28;20206;-77
2022/09/06 05:31:25;;;;;;;1008.38;921.22;;;23.00;92.80;;;;;;5089790;28;20194;-76
2022/09/06 05:33:52;;;;;;;1008.03;920.85;;;23.00;92.80;;;;;;5085156;28;20245;-75
2022/09/06 05:36:18;;;;;;;1010.75;923.45;;;23.00;92.90;;;;;;5089489;28;20205;-75
2022/09/06 05:38:45;;;;;;;1014.58;927.08;;;23.00;93.00;;;;;;5085246;28;20221;-75
2022/09/06 05:41:13;;;;;;;1001.85;914.72;;;23.00;93.10;;;;;;5087799;28;20656;-76
2022/09/06 05:43:40;;;;;;;1003.55;916.30;;;23.00;93.20;;;;;;5082942;28;20210;-76
2022/09/06 05:46:06;;;;;;;986.63;900.08;;;23.00;93.20;;;;;;5085719;28;20560;-75
2022/09/06 05:48:33;;;;;;;1013.10;925.78;;;23.00;93.30;;;;;;5087662;28;20213;-75
2022/09/06 05:51:01;;;;;;;998.47;911.42;;;23.00;93.40;;;;;;5090541;28;20224;-74
2022/09/06 05:53:33;;;;;;;999.97;912.67;;;22.90;93.50;;;;;;5086290;28;20202;-75
2022/09/06 05:55:59;;;;;;;999.40;912.53;;;22.90;93.50;;;;;;5090386;28;20190;-74
2022/09/06 05:58:27;;;;;;;1015.78;928.15;;;22.90;93.60;;;;;;5082078;28;20214;-75
2022/09/06 06:01:04;;;;;;;1010.15;922.65;;;22.90;93.70;;;;;;5087179;28;20194;-75
2022/09/06 06:03:31;;;;;;;1001.30;914.38;;;22.90;93.80;;;;;;5082674;28;20700;-75
2022/09/06 06:05:58;;;;;;;1025.15;937.17;;;22.90;93.90;;;;;;5083251;28;20200;-75
2022/09/06 06:08:24;;;;;;;1002.78;915.63;;;22.90;94.00;;;;;;5091904;28;20217;-75
2022/09/06 06:10:51;;;;;;;1006.00;918.70;;;22.90;94.10;;;;;;5088696;28;20205;-75
2022/09/06 06:13:18;;;;;;;1003.08;915.85;;;22.90;94.10;;;;;;5084140;28;20191;-75
2022/09/06 06:15:46;;;;;;;995.78;909.03;;;22.90;94.10;;;;;;5082135;28;20194;-75
2022/09/06 06:18:12;;;;;;;1009.38;922.05;;;22.90;94.20;;;;;;5090166;28;20182;-75
2022/09/06 06:20:39;;;;;;;997.40;910.47;;;22.90;94.20;;;;;;5088813;28;20197;-75
2022/09/06 06:23:06;;;;;;;998.50;911.60;;;22.90;94.20;;;;;;5085502;28;20806;-75
2022/09/06 06:25:32;;;;;;;997.13;910.38;;;22.90;94.20;;;;;;5089071;28;20217;-74
2022/09/06 06:27:59;;;;;;;997.50;910.50;;;22.90;94.30;;;;;;5084765;28;20190;-74
2022/09/06 06:30:27;;;;;;;999.35;912.55;;;22.90;94.30;;;;;;5084238;28;20199;-75
2022/09/06 06:32:57;;;;;;;1001.22;914.00;;;22.90;94.30;;;;;;5087306;28;20193;-74
2022/09/06 06:35:24;;;;;;;986.55;900.20;;;22.90;94.40;;;;;;5085587;28;20627;-75
2022/09/06 06:37:51;;;;;;;1005.90;919.03;;;22.90;94.30;;;;;;5091859;28;20200;-74
2022/09/06 06:40:17;;;;;;;1004.17;917.17;;;22.90;94.40;;;;;;5088058;28;20221;-74
2022/09/06 06:42:44;;;;;;;992.72;906.08;;;22.90;94.40;;;;;;5076003;28;20554;-75
2022/09/06 06:45:11;;;;;;;998.88;912.08;;;22.90;94.40;;;;;;5082439;28;20193;-75
2022/09/06 06:47:38;;;;;;;995.30;908.63;;;23.00;94.40;;;;;;5090300;28;20194;-75
2022/09/06 06:50:07;;;;;;;983.50;897.20;;;23.00;94.50;;;;;;5082895;28;20197;-75
2022/09/06 06:52:33;;;;;;;996.65;909.95;;;23.00;94.30;;;;;;5084711;28;20197;-75
2022/09/06 06:55:00;;;;;;;989.83;903.15;;;23.10;94.60;;;;;;5087833;28;20584;-75
2022/09/06 06:57:27;;;;;;;997.63;910.85;;;23.10;94.20;;;;;;5081883;28;20196;-75
2022/09/06 06:59:53;;;;;;;995.05;908.05;;;23.20;94.10;;;;;;5087683;28;20205;-74
2022/09/06 07:02:20;;;;;;;1001.60;914.58;;;23.20;94.00;;;;;;5080200;28;20194;-74
2022/09/06 07:04:47;;;;;;;1020.80;933.35;;;23.30;93.90;;;;;;5085394;28;20237;-73
2022/09/06 07:07:15;;;;;;;1023.80;935.63;;;23.50;93.70;;;;;;5082469;28;20198;-73
2022/09/06 07:09:41;;;;;;;1051.53;962.55;;;23.70;93.30;;;;;;5084472;28;20201;-73
2022/09/06 07:12:11;;;;;;;1049.18;960.45;;;24.00;92.90;;;;;;5078707;28;20194;-74
2022/09/06 07:14:38;;;;;;;1050.43;961.58;;;24.30;92.40;;;;;;5072363;28;20202;-76
2022/09/06 07:17:05;;;;;;;1070.72;981.25;;;24.60;91.70;;;;;;5087065;28;20245;-75
2022/09/06 07:19:31;;;;;;;1089.68;996.30;;;25.00;91.10;;;;;;5084401;28;20201;-76
2022/09/06 07:21:58;;;;;;;1088.75;995.78;;;25.30;90.50;;;;;;5087538;28;20190;-76
2022/09/06 07:24:26;;;;;;;1093.22;998.63;;;25.60;89.70;;;;;;5089689;28;20240;-77
2022/09/06 07:26:52;;;;;;;1095.20;998.15;;;25.80;88.50;;;;;;5089947;28;20197;-77
2022/09/06 07:29:19;;;;;;;1104.15;999.90;;;26.00;87.50;;;;;;5076640;28;20194;-77
2022/09/06 07:31:46;;;;;;;1104.67;999.90;;;26.20;86.80;;;;;;5090063;28;20200;-76
2022/09/06 07:34:13;;;;;;;1111.43;999.90;;;26.30;86.20;;;;;;5085546;28;20455;-77
2022/09/06 07:36:40;;;;;;;1121.80;999.90;;;26.40;85.60;;;;;;5079489;28;20459;-77
2022/09/06 07:39:06;;;;;;;1127.40;999.90;;;26.40;85.30;;;;;;5089704;28;20444;-76
2022/09/06 07:41:34;;;;;;;1122.17;999.90;;;26.50;85.00;;;;;;5090005;28;20937;-77
2022/09/06 07:44:01;;;;;;;1117.20;999.90;;;26.50;85.10;;;;;;5087212;28;20471;-76
2022/09/06 07:46:28;;;;;;;1126.27;999.90;;;26.60;84.40;;;;;;5082931;28;20463;-76
2022/09/06 07:48:54;;;;;;;1122.17;999.90;;;26.60;84.10;;;;;;5080392;28;20462;-77
2022/09/06 07:51:22;;;;;;;1142.00;999.90;;;26.70;84.60;;;;;;5082032;28;20459;-76
2022/09/06 07:53:51;;;;;;;1137.43;999.90;;;26.70;83.60;;;;;;5087231;28;20459;-77
2022/09/06 07:56:20;;;;;;;1144.97;999.90;;;26.80;83.40;;;;;;5084649;28;20473;-76
2022/09/06 07:58:50;;;;;;;1150.10;999.90;;;26.90;83.20;;;;;;5080325;28;20456;-77
2022/09/06 08:01:28;;;;;;;1138.53;999.90;;;27.00;83.10;;;;;;5080057;28;20476;-77
2022/09/06 08:03:56;;;;;;;1150.30;999.90;;;27.00;82.80;;;;;;5081964;28;20838;-76
2022/09/06 08:06:23;;;;;;;1151.50;999.90;;;27.00;82.50;;;;;;5079932;28;20461;-79
2022/09/06 08:08:50;;;;;;;1138.20;999.90;;;27.10;82.30;;;;;;5082337;28;20570;-75
2022/09/06 08:11:17;;;;;;;1140.70;999.90;;;27.10;82.10;;;;;;5077536;28;20554;-76
2022/09/06 08:13:46;;;;;;;1149.53;999.90;;;27.20;82.10;;;;;;5076577;28;20464;-75
2022/09/06 08:16:15;;;;;;;1156.10;999.90;;;27.20;82.00;;;;;;5084933;28;20460;-75
2022/09/06 08:18:42;;;;;;;1144.57;999.90;;;27.20;82.70;;;;;;5079772;28;20448;-75
2022/09/06 08:21:11;;;;;;;1152.37;999.90;;;27.30;81.80;;;;;;5077915;28;20451;-75
2022/09/06 08:23:38;;;;;;;1160.30;999.90;;;27.20;81.50;;;;;;5076108;28;20512;-75
2022/09/06 08:26:05;;;;;;;1160.30;999.90;;;27.30;81.50;;;;;;5084980;28;20471;-76
2022/09/06 08:28:32;;;;;;;1159.43;999.90;;;27.40;81.40;;;;;;5082083;28;20526;-76
2022/09/06 08:31:06;;;;;;;1163.73;999.90;;;27.40;81.30;;;;;;5078984;28;20466;-75
2022/09/06 08:33:34;;;;;;;1156.20;999.90;;;27.40;81.00;;;;;;5089947;28;20459;-76
2022/09/06 08:36:01;;;;;;;1148.13;999.90;;;27.40;81.00;;;;;;5074961;28;20447;-75
2022/09/06 08:38:28;;;;;;;1161.90;999.90;;;27.40;80.90;;;;;;5083342;28;20455;-76
2022/09/06 08:41:06;;;;;;;1157.57;999.90;;;27.50;80.90;;;;;;5076376;28;20459;-76
2022/09/06 08:43:33;;;;;;;1161.90;999.90;;;27.50;80.80;;;;;;5086504;28;20475;-76
2022/09/06 08:46:00;;;;;;;1155.07;999.90;;;27.50;80.70;;;;;;5079646;28;20478;-76
2022/09/06 08:48:32;;;;;;;1154.77;999.90;;;27.50;80.40;;;;;;5079866;28;20468;-76
2022/09/06 08:51:13;;;;;;;1160.63;999.90;;;27.50;80.40;;;;;;5078615;28;20521;-76
2022/09/06 08:53:45;;;;;;;1166.53;999.90;;;27.50;80.10;;;;;;5085937;28;20460;-76
2022/09/06 08:56:16;;;;;;;1154.70;999.90;;;27.50;80.20;;;;;;5074581;28;21022;-76
2022/09/06 08:58:58;;;;;;;1153.60;999.90;;;27.50;80.00;;;;;;5082916;28;20546;-76
2022/09/06 09:01:29;;;;;;;1150.07;999.90;;;27.50;80.30;;;;;;5080480;28;20874;-76
2022/09/06 09:04:01;;;;;;;1163.83;999.90;;;27.50;80.30;;;;;;5083725;28;20471;-77
2022/09/06 09:06:31;;;;;;;1151.80;999.90;;;27.50;80.10;;;;;;5078664;28;20453;-77
2022/09/06 09:09:04;;;;;;;1164.80;999.90;;;27.50;80.20;;;;;;5086070;28;20452;-76
2022/09/06 09:11:32;;;;;;;1158.90;999.90;;;27.50;80.20;;;;;;5084982;28;20444;-76
2022/09/06 09:14:05;;;;;;;1159.17;999.90;;;27.40;80.20;;;;;;5079648;28;20546;-75
2022/09/06 09:16:32;;;;;;;1151.47;999.90;;;27.40;79.90;;;;;;5077241;28;20451;-76
2022/09/06 09:19:01;;;;;;;1156.13;999.90;;;27.40;79.80;;;;;;5086027;28;20815;-76
2022/09/06 09:21:32;;;;;;;1147.57;999.90;;;27.40;79.50;;;;;;5089313;28;20466;-76
2022/09/06 09:24:04;;;;;;;1151.33;999.90;;;27.40;79.70;;;;;;5079648;28;20475;-76
2022/09/06 09:26:37;;;;;;;1161.17;999.90;;;27.40;79.80;;;;;;5078107;28;20966;-76
2022/09/06 09:29:07;;;;;;;1156.50;999.90;;;27.40;79.70;;;;;;5085871;28;20454;-76
2022/09/06 09:31:35;;;;;;;1155.90;999.90;;;27.40;79.90;;;;;;5081691;28;20846;-76
2022/09/06 09:34:03;;;;;;;1149.47;999.90;;;27.40;80.10;;;;;;5080329;28;20463;-76
2022/09/06 09:36:36;;;;;;;1154.93;999.90;;;27.40;80.20;;;;;;5080030;28;20460;-76
2022/09/06 09:39:09;;;;;;;1155.77;999.90;;;27.40;79.90;;;;;;5084283;28;20452;-75
2022/09/06 09:41:38;;;;;;;1155.00;999.90;;;27.40;79.90;;;;;;5076841;28;20456;-74
2022/09/06 09:44:09;;;;;;;1155.80;999.90;;;27.40;80.00;;;;;;5081803;28;20470;-74
2022/09/06 09:46:37;;;;;;;1151.97;999.90;;;27.40;80.20;;;;;;5083039;28;20959;-73
2022/09/06 09:49:09;;;;;;;1152.73;999.90;;;27.40;80.30;;;;;;5077931;28;20459;-75
2022/09/06 09:51:39;;;;;;;1157.03;999.90;;;27.30;80.30;;;;;;5077887;28;20461;-75
2022/09/06 09:54:08;;;;;;;1156.07;999.90;;;27.30;80.10;;;;;;5074495;28;20466;-75
2022/09/06 09:56:42;;;;;;;1152.43;999.90;;;27.30;80.30;;;;;;5082406;28;20846;-75
2022/09/06 09:59:25;;;;;;;1158.07;999.90;;;27.30;80.40;;;;;;5074780;28;20811;-75
2022/09/06 10:01:55;;;;;;;1146.90;999.90;;;27.30;80.40;;;;;;5088996;28;20678;-77
2022/09/06 10:04:28;;;;;;;1137.17;999.90;;;27.30;80.30;;;;;;5086488;28;20458;-75
2022/09/06 10:07:09;;;;;;;1156.77;999.90;;;27.30;80.50;;;;;;5086065;28;20457;-76
2022/09/06 10:09:39;;;;;;;1148.37;999.90;;;27.30;81.40;;;;;;5090232;28;20459;-77
2022/09/06 10:12:06;;;;;;;1144.57;999.90;;;27.20;80.30;;;;;;5084971;28;20791;-76
2022/09/06 10:14:41;;;;;;;1146.73;999.90;;;27.20;80.60;;;;;;5087088;28;20459;-76
2022/09/06 10:17:08;;;;;;;1146.50;999.90;;;27.20;80.70;;;;;;5075766;28;20456;-76
2022/09/06 10:19:41;;;;;;;1147.93;999.90;;;27.20;80.70;;;;;;5088489;28;20451;-75
2022/09/06 10:22:21;;;;;;;1155.10;999.90;;;27.20;81.00;;;;;;5078619;28;20460;-75
2022/09/06 10:25:13;;;;;;;1145.10;999.90;;;27.20;80.80;;;;;;5083638;28;20570;-75
2022/09/06 10:27:51;;;;;;;1155.73;999.90;;;27.20;80.70;;;;;;5083464;28;20451;-76
2022/09/06 10:30:32;;;;;;;1145.73;999.90;;;27.20;80.70;;;;;;5084324;28;20797;-76
2022/09/06 10:33:04;;;;;;;1152.73;999.90;;;27.10;80.70;;;;;;5079255;28;20422;-75
2022/09/06 10:35:34;;;;;;;1150.63;999.90;;;27.20;80.90;;;;;;5085467;28;20460;-75
2022/09/06 10:38:16;;;;;;;1145.37;999.90;;;27.10;80.70;;;;;;5084437;28;20452;-76
2022/09/06 10:40:55;;;;;;;1156.97;999.90;;;27.10;80.40;;;;;;5089670;28;20440;-76
2022/09/06 10:43:24;;;;;;;1139.57;999.90;;;27.10;80.60;;;;;;5086891;28;20455;-74
2022/09/06 10:45:58;;;;;;;1135.90;999.90;;;27.10;80.40;;;;;;5082433;28;20487;-75
2022/09/06 10:48:28;;;;;;;1141.00;999.90;;;27.10;80.60;;;;;;5081415;28;20445;-74
2022/09/06 10:51:00;;;;;;;1139.20;999.90;;;27.10;80.70;;;;;;5077288;28;20448;-74
2022/09/06 10:53:43;;;;;;;1147.10;999.90;;;27.10;80.70;;;;;;5089641;28;20511;-75
2022/09/06 10:56:15;;;;;;;1147.33;999.90;;;27.10;80.90;;;;;;5085644;28;20444;-75
2022/09/06 10:58:48;;;;;;;1140.97;999.90;;;27.00;80.70;;;;;;5083968;28;20809;-74
2022/09/06 11:01:25;;;;;;;1139.47;999.90;;;27.00;80.80;;;;;;5087768;28;20470;-74
2022/09/06 11:03:55;;;;;;;1139.40;999.90;;;27.00;81.00;;;;;;5090606;28;20452;-74
2022/09/06 11:06:28;;;;;;;1138.37;999.90;;;27.00;81.00;;;;;;5090126;28;20460;-74
2022/09/06 11:09:03;;;;;;;1142.03;999.90;;;27.00;81.00;;;;;;5083018;28;20445;-75
2022/09/06 11:11:35;;;;;;;1137.60;999.90;;;27.00;80.70;;;;;;5092607;28;20439;-74
2022/09/06 11:14:09;;;;;;;1144.50;999.90;;;27.00;80.60;;;;;;5081353;28;20463;-75
2022/09/06 11:16:43;;;;;;;1147.03;999.90;;;27.00;81.00;;;;;;5080539;28;20471;-75
2022/09/06 11:19:16;;;;;;;1130.27;999.90;;;27.00;80.90;;;;;;5088088;28;20450;-75
2022/09/06 11:22:06;;;;;;;1130.27;999.90;;;27.00;80.90;;;;;;5090151;28;20470;-75
2022/09/06 11:24:59;;;;;;;1142.83;999.90;;;27.00;80.90;;;;;;5085180;28;20446;-75
2022/09/06 11:27:36;;;;;;;1132.00;999.90;;;27.00;80.90;;;;;;5084319;28;20471;-73
2022/09/06 11:30:05;;;;;;;1132.37;999.90;;;27.00;80.90;;;;;;5077443;28;20451;-74
2022/09/06 11:32:37;;;;;;;1146.93;999.90;;;27.00;80.80;;;;;;5087438;28;20462;-74
2022/09/06 11:35:08;;;;;;;1132.87;999.90;;;27.00;80.90;;;;;;5080992;28;20468;-74
2022/09/06 11:37:38;;;;;;;1138.77;999.90;;;27.00;80.90;;;;;;5087412;28;20451;-74
2022/09/06 11:40:14;;;;;;;1140.00;999.90;;;27.00;80.80;;;;;;5082659;28;20440;-75
2022/09/06 11:43:09;;;;;;;1133.97;999.90;;;27.00;81.00;;;;;;5088673;28;20446;-74
2022/09/06 11:45:43;;;;;;;1137.03;999.90;;;27.00;80.70;;;;;;5080875;28;20456;-75
2022/09/06 11:48:48;;;;;;;1131.10;999.90;;;27.00;80.80;;;;;;5083124;28;20459;-75
2022/09/06 11:51:31;;;;;;;1137.83;999.90;;;27.00;80.70;;;;;;5075981;28;20448;-75
2022/09/06 11:54:17;;;;;;;1135.30;999.90;;;27.00;80.80;;;;;;5087620;28;20451;-74
2022/09/06 11:56:54;;;;;;;1136.93;999.90;;;27.00;80.70;;;;;;5085755;28;20463;-74
2022/09/06 11:59:32;;;;;;;1136.43;999.90;;;27.00;80.70;;;;;;5087782;28;20450;-73
2022/09/06 12:02:03;;;;;;;1133.23;999.90;;;27.00;80.80;;;;;;5072880;28;20463;-73
2022/09/06 12:05:08;;;;;;;1134.60;999.90;;;26.90;80.60;;;;;;5083338;28;20491;-74
2022/09/06 12:07:36;;;;;;;1133.03;999.90;;;26.90;80.70;;;;;;5081496;28;20459;-72
2022/09/06 12:10:45;;;;;;;1127.77;999.90;;;26.90;80.70;;;;;;5079513;28;20459;-73
2022/09/06 12:13:48;;;;;;;1124.60;999.90;;;26.90;80.90;;;;;;5083056;28;20463;-73
2022/09/06 12:16:17;;;;;;;1123.67;999.90;;;26.90;80.80;;;;;;5083659;28;20463;-73